createdAt,value
2019-01-14T00:01:41.061Z,23.17
2019-01-14T00:04:10.482Z,21.00
2019-01-14T00:06:40.983Z,21.97
2019-01-14T00:09:10.484Z,22.07
2019-01-14T00:11:39.976Z,22.87
2019-01-14T00:14:09.505Z,22.57
2019-01-14T00:16:38.902Z,23.70
2019-01-14T00:19:08.405Z,27.67
2019-01-14T00:21:38.088Z,30.10
2019-01-14T00:24:07.483Z,28.73
2019-01-14T00:26:36.990Z,26.33
2019-01-14T00:29:06.433Z,25.97
2019-01-14T00:31:35.884Z,26.33
2019-01-14T00:34:05.477Z,28.90
2019-01-14T00:36:35.332Z,28.30
2019-01-14T00:39:06.914Z,47.27
2019-01-14T00:41:36.351Z,30.97
2019-01-14T00:44:06.059Z,28.50
2019-01-14T00:46:35.598Z,40.53
2019-01-14T00:49:05.807Z,33.90
2019-01-14T00:51:35.262Z,33.63
2019-01-14T00:54:04.867Z,31.90
2019-01-14T00:56:34.395Z,32.80
2019-01-14T00:59:04.008Z,36.70
2019-01-14T01:01:33.444Z,35.40
2019-01-14T01:04:02.976Z,35.37
2019-01-14T01:06:32.443Z,35.07
2019-01-14T01:09:04.888Z,37.50
2019-01-14T01:11:34.880Z,32.13
2019-01-14T01:14:04.619Z,34.30
2019-01-14T01:16:34.070Z,31.20
2019-01-14T01:19:03.584Z,33.77
2019-01-14T01:21:33.163Z,32.13
2019-01-14T01:24:02.581Z,35.00
2019-01-14T01:26:32.095Z,31.03
2019-01-14T01:29:01.637Z,32.27
2019-01-14T01:31:31.151Z,32.87
2019-01-14T01:34:00.569Z,32.90
2019-01-14T01:36:31.968Z,32.37
2019-01-14T01:39:01.410Z,35.93
2019-01-14T01:41:30.935Z,34.67
2019-01-14T01:44:00.419Z,28.23
2019-01-14T01:46:29.938Z,24.87
2019-01-14T01:48:59.346Z,31.17
2019-01-14T01:51:28.955Z,26.77
2019-01-14T01:53:58.460Z,25.77
2019-01-14T01:56:27.960Z,27.37
2019-01-14T01:58:57.446Z,27.27
2019-01-14T02:01:26.859Z,26.27
2019-01-14T02:03:56.471Z,26.67
2019-01-14T02:06:26.207Z,25.90
2019-01-14T02:08:55.627Z,22.40
2019-01-14T02:11:25.276Z,23.13
2019-01-14T02:13:55.136Z,23.80
2019-01-14T02:16:24.637Z,27.67
2019-01-14T02:18:54.170Z,25.77
2019-01-14T02:21:23.610Z,27.10
2019-01-14T02:23:53.125Z,27.93
2019-01-14T02:26:22.556Z,28.10
2019-01-14T02:28:52.238Z,34.90
2019-01-14T02:31:21.727Z,43.20
2019-01-14T02:33:51.300Z,31.10
2019-01-14T02:36:20.734Z,27.80
2019-01-14T02:38:50.247Z,27.07
2019-01-14T02:41:19.760Z,28.87
2019-01-14T02:43:49.389Z,30.10
2019-01-14T02:46:18.790Z,30.03
2019-01-14T02:48:48.326Z,30.93
2019-01-14T02:51:17.855Z,30.53
2019-01-14T02:53:47.287Z,31.40
2019-01-14T02:56:16.686Z,30.53
2019-01-14T02:58:46.386Z,32.20
2019-01-14T03:01:15.912Z,31.23
2019-01-14T03:03:45.332Z,31.00
2019-01-14T03:06:14.801Z,33.13
2019-01-14T03:08:44.344Z,34.17
2019-01-14T03:11:13.873Z,31.60
2019-01-14T03:13:44.853Z,32.90
2019-01-14T03:16:14.286Z,33.37
2019-01-14T03:18:43.836Z,32.80
2019-01-14T03:21:13.425Z,30.57
2019-01-14T03:23:42.826Z,30.10
2019-01-14T03:26:12.252Z,29.50
2019-01-14T03:28:41.955Z,30.53
2019-01-14T03:31:11.469Z,30.87
2019-01-14T03:33:40.887Z,32.93
2019-01-14T03:36:10.341Z,33.70
2019-01-14T03:38:39.924Z,29.53
2019-01-14T03:41:09.430Z,29.67
2019-01-14T03:43:38.876Z,31.57
2019-01-14T03:46:08.393Z,27.63
2019-01-14T03:48:37.847Z,27.23
2019-01-14T03:51:07.284Z,28.33
2019-01-14T03:53:36.791Z,25.30
2019-01-14T03:56:06.275Z,24.83
2019-01-14T03:58:35.728Z,27.90
2019-01-14T04:01:05.240Z,27.87
2019-01-14T04:03:34.967Z,30.00
2019-01-14T04:06:04.619Z,43.77
2019-01-14T04:08:34.017Z,51.47
2019-01-14T04:11:03.438Z,41.27
2019-01-14T04:13:33.006Z,36.17
2019-01-14T04:16:02.599Z,29.60
2019-01-14T04:18:32.010Z,32.60
2019-01-14T04:21:01.488Z,29.90
2019-01-14T04:23:31.009Z,26.27
2019-01-14T04:26:00.413Z,26.07
2019-01-14T04:28:29.965Z,26.33
2019-01-14T04:31:00.089Z,24.83
2019-01-14T04:33:29.511Z,22.63
2019-01-14T04:35:58.955Z,23.17
2019-01-14T04:38:28.763Z,22.37
2019-01-14T04:40:58.260Z,23.93
2019-01-14T04:43:27.718Z,23.93
2019-01-14T04:45:57.162Z,27.03
2019-01-14T04:48:27.334Z,27.17
2019-01-14T04:50:56.986Z,24.67
2019-01-14T04:53:26.470Z,23.80
2019-01-14T04:55:55.895Z,24.33
2019-01-14T04:58:25.431Z,22.33
2019-01-14T05:00:54.947Z,19.70
2019-01-14T05:03:24.386Z,20.60
2019-01-14T05:05:53.948Z,19.07
2019-01-14T05:08:23.360Z,17.97
2019-01-14T05:10:52.776Z,20.20
2019-01-14T05:13:22.367Z,20.47
2019-01-14T05:15:51.889Z,20.73
2019-01-14T05:18:21.463Z,17.63
2019-01-14T05:20:50.918Z,16.00
2019-01-14T05:23:20.433Z,16.80
2019-01-14T05:25:49.949Z,16.87
2019-01-14T05:28:19.539Z,17.77
2019-01-14T05:30:48.949Z,16.63
2019-01-14T05:33:18.478Z,16.20
2019-01-14T05:35:48.030Z,14.60
2019-01-14T05:38:17.482Z,16.33
2019-01-14T05:40:47.032Z,19.70
2019-01-14T05:43:16.664Z,19.17
2019-01-14T05:45:46.052Z,26.17
2019-01-14T05:48:15.615Z,28.90
2019-01-14T05:50:45.173Z,34.43
2019-01-14T05:53:14.576Z,34.37
2019-01-14T05:55:44.015Z,34.43
2019-01-14T05:58:13.719Z,30.47
2019-01-14T06:00:48.445Z,34.23
2019-01-14T06:03:18.036Z,32.00
2019-01-14T06:05:47.542Z,30.33
2019-01-14T06:08:17.562Z,28.77
2019-01-14T06:10:47.131Z,28.43
2019-01-14T06:13:16.562Z,26.43
2019-01-14T06:15:46.002Z,28.03
2019-01-14T06:18:15.578Z,28.57
2019-01-14T06:20:45.107Z,28.23
2019-01-14T06:23:14.625Z,28.30
2019-01-14T06:25:44.240Z,26.97
2019-01-14T06:28:13.682Z,28.43
2019-01-14T06:30:43.198Z,33.20
2019-01-14T06:33:12.925Z,30.40
2019-01-14T06:35:42.952Z,32.47
2019-01-14T06:38:14.365Z,35.43
2019-01-14T06:40:44.007Z,32.07
2019-01-14T06:43:13.767Z,30.70
2019-01-14T06:45:43.448Z,34.50
2019-01-14T06:48:13.191Z,34.50
2019-01-14T06:50:42.612Z,33.83
2019-01-14T06:53:12.423Z,34.47
2019-01-14T06:55:41.994Z,30.57
2019-01-14T06:58:11.512Z,30.87
2019-01-14T07:00:41.454Z,30.80
2019-01-14T07:03:11.106Z,46.27
2019-01-14T07:05:41.087Z,41.03
2019-01-14T07:08:10.938Z,44.47
2019-01-14T07:10:41.302Z,35.03
2019-01-14T07:13:11.137Z,38.17
2019-01-14T07:15:43.474Z,38.83
2019-01-14T07:18:13.286Z,37.50
2019-01-14T07:20:43.288Z,40.03
2019-01-14T07:23:12.821Z,37.67
2019-01-14T07:25:42.443Z,42.83
2019-01-14T07:28:13.206Z,40.20
2019-01-14T07:30:43.777Z,37.37
2019-01-14T07:33:13.878Z,39.27
2019-01-14T07:35:43.310Z,41.37
2019-01-14T07:38:12.888Z,43.33
2019-01-14T07:40:42.866Z,40.80
2019-01-14T07:43:12.296Z,41.77
2019-01-14T07:45:41.928Z,42.97
2019-01-14T07:48:12.660Z,43.67
2019-01-14T07:50:43.139Z,43.87
2019-01-14T07:53:16.809Z,45.00
2019-01-14T07:55:46.392Z,44.80
2019-01-14T07:58:16.431Z,45.27
2019-01-14T08:00:46.115Z,55.73
2019-01-14T08:03:15.713Z,46.33
2019-01-14T08:05:48.331Z,45.43
2019-01-14T08:08:17.898Z,42.13
2019-01-14T08:10:47.327Z,41.73
2019-01-14T08:13:17.552Z,36.20
2019-01-14T08:15:47.123Z,42.43
2019-01-14T08:18:20.364Z,43.37
2019-01-14T08:20:49.983Z,44.33
2019-01-14T08:23:19.528Z,44.10
2019-01-14T08:25:49.017Z,45.10
2019-01-14T08:28:18.624Z,45.90
2019-01-14T08:30:48.056Z,43.83
2019-01-14T08:33:17.614Z,44.57
2019-01-14T08:35:47.175Z,46.77
2019-01-14T08:38:21.231Z,47.10
2019-01-14T08:40:47.788Z,47.37
2019-01-14T08:43:17.369Z,44.33
2019-01-14T08:45:47.286Z,38.33
2019-01-14T08:48:16.722Z,37.30
2019-01-14T08:50:50.720Z,42.63
2019-01-14T08:53:20.237Z,43.60
2019-01-14T08:56:09.718Z,42.63
2019-01-14T08:58:52.150Z,41.50
2019-01-14T09:01:22.881Z,40.23
2019-01-14T09:03:52.684Z,24.33
2019-01-14T09:06:25.704Z,27.20
2019-01-14T09:08:58.766Z,24.80
2019-01-14T09:11:28.351Z,22.10
2019-01-14T09:13:58.076Z,19.17
2019-01-14T09:16:28.149Z,21.27
2019-01-14T09:18:58.556Z,21.70
2019-01-14T09:21:28.063Z,20.47
2019-01-14T09:24:00.065Z,19.47
2019-01-14T09:26:31.359Z,18.53
2019-01-14T09:29:00.871Z,17.97
2019-01-14T09:31:32.170Z,18.77
2019-01-14T09:34:02.949Z,16.40
2019-01-14T09:36:32.367Z,15.33
2019-01-14T09:39:01.960Z,15.30
2019-01-14T09:41:31.512Z,16.50
2019-01-14T09:44:02.108Z,16.70
2019-01-14T09:46:31.691Z,17.27
2019-01-14T09:49:01.123Z,16.23
2019-01-14T09:51:30.554Z,14.00
2019-01-14T09:54:00.139Z,16.03
2019-01-14T09:56:30.112Z,14.67
2019-01-14T09:58:59.630Z,15.43
2019-01-14T10:01:29.087Z,15.20
2019-01-14T10:03:58.584Z,16.23
2019-01-14T10:06:28.198Z,14.87
2019-01-14T10:08:57.874Z,14.73
2019-01-14T10:11:27.297Z,14.53
2019-01-14T10:13:57.007Z,14.50
2019-01-14T10:16:26.570Z,14.77
2019-01-14T10:18:56.007Z,14.90
2019-01-14T10:21:25.444Z,16.33
2019-01-14T10:23:55.938Z,17.93
2019-01-14T10:26:25.401Z,15.70
2019-01-14T10:28:54.920Z,15.70
2019-01-14T10:31:24.476Z,16.87
2019-01-14T10:33:54.404Z,15.40
2019-01-14T10:36:25.140Z,14.27
2019-01-14T10:38:55.033Z,14.93
2019-01-14T10:41:24.573Z,16.97
2019-01-14T10:43:58.181Z,15.97
2019-01-14T10:46:27.854Z,13.50
2019-01-14T10:48:57.336Z,14.73
2019-01-14T10:51:26.953Z,21.43
2019-01-14T10:53:56.420Z,22.97
2019-01-14T10:56:27.137Z,28.93
2019-01-14T10:58:57.014Z,20.67
2019-01-14T11:01:26.554Z,15.03
2019-01-14T11:03:56.558Z,15.03
2019-01-14T11:06:26.135Z,15.27
2019-01-14T11:08:57.728Z,14.07
2019-01-14T11:11:27.446Z,12.57
2019-01-14T11:13:56.971Z,13.93
2019-01-14T11:16:26.526Z,12.60
2019-01-14T11:18:55.967Z,13.37
2019-01-14T11:21:27.630Z,12.47
2019-01-14T11:23:57.354Z,12.83
2019-01-14T11:26:26.920Z,12.43
2019-01-14T11:28:56.338Z,11.93
2019-01-14T11:31:25.851Z,13.33
2019-01-14T11:33:55.345Z,14.30
2019-01-14T11:36:24.863Z,13.73
2019-01-14T11:38:54.313Z,13.23
2019-01-14T11:41:24.977Z,13.17
2019-01-14T11:43:54.472Z,13.53
2019-01-14T11:46:23.968Z,12.50
2019-01-14T11:48:53.463Z,12.87
2019-01-14T11:51:23.003Z,12.83
2019-01-14T11:53:52.445Z,11.87
2019-01-14T11:56:21.867Z,10.07
2019-01-14T11:58:51.394Z,13.20
2019-01-14T12:01:20.960Z,10.87
2019-01-14T12:03:50.383Z,12.03
2019-01-14T12:06:19.822Z,17.87
2019-01-14T12:08:49.342Z,12.80
2019-01-14T12:11:18.957Z,11.37
2019-01-14T12:13:48.370Z,21.17
2019-01-14T12:16:17.854Z,12.60
2019-01-14T12:18:47.381Z,10.00
2019-01-14T12:21:16.905Z,9.33
2019-01-14T12:23:46.365Z,9.13
2019-01-14T12:26:15.972Z,10.80
2019-01-14T12:28:45.388Z,44.93
2019-01-14T12:31:14.857Z,13.63
2019-01-14T12:33:44.360Z,10.40
2019-01-14T12:36:13.866Z,10.30
2019-01-14T12:38:43.363Z,9.77
2019-01-14T12:41:12.786Z,21.20
2019-01-14T12:43:42.313Z,11.67
2019-01-14T12:46:12.014Z,10.67
2019-01-14T12:48:41.458Z,11.40
2019-01-14T12:51:10.860Z,11.50
2019-01-14T12:53:40.582Z,10.73
2019-01-14T12:56:10.161Z,9.73
2019-01-14T12:58:39.599Z,11.23
2019-01-14T13:01:09.085Z,8.87
2019-01-14T13:03:38.696Z,6.90
2019-01-14T13:06:08.225Z,6.67
2019-01-14T13:08:37.935Z,9.23
2019-01-14T13:11:07.584Z,8.77
2019-01-14T13:13:37.032Z,7.00
2019-01-14T13:16:06.700Z,7.97
2019-01-14T13:18:36.274Z,9.07
2019-01-14T13:21:05.956Z,10.80
2019-01-14T13:23:35.412Z,11.23
2019-01-14T13:26:05.052Z,10.60
2019-01-14T13:28:35.450Z,9.70
2019-01-14T13:31:05.036Z,11.37
2019-01-14T13:33:34.287Z,12.77
2019-01-14T13:36:03.713Z,10.30
2019-01-14T13:38:33.552Z,9.47
2019-01-14T13:41:03.052Z,11.00
2019-01-14T13:43:32.484Z,11.57
2019-01-14T13:46:02.147Z,8.20
2019-01-14T13:48:31.649Z,12.67
2019-01-14T13:51:01.167Z,9.63
2019-01-14T13:53:30.609Z,18.10
2019-01-14T13:56:00.933Z,11.60
2019-01-14T13:58:30.450Z,12.53
2019-01-14T14:01:00.253Z,12.17
2019-01-14T14:03:29.728Z,11.53
2019-01-14T14:05:58.991Z,12.57
2019-01-14T14:08:28.574Z,10.80
2019-01-14T14:10:58.072Z,12.60
2019-01-14T14:13:27.514Z,14.37
2019-01-14T14:15:56.998Z,16.70
2019-01-14T14:18:26.510Z,11.80
2019-01-14T14:20:56.027Z,10.97
2019-01-14T14:23:25.523Z,10.87
2019-01-14T14:25:55.281Z,11.27
2019-01-14T14:28:24.713Z,9.87
2019-01-14T14:30:54.178Z,9.50
2019-01-14T14:33:23.708Z,12.70
2019-01-14T14:35:53.922Z,11.13
2019-01-14T14:38:23.394Z,11.00
2019-01-14T14:40:52.939Z,13.10
2019-01-14T14:43:22.468Z,10.03
2019-01-14T14:45:52.170Z,10.43
2019-01-14T14:48:21.602Z,8.33
2019-01-14T14:50:51.041Z,8.53
2019-01-14T14:53:20.607Z,8.73
2019-01-14T14:55:50.543Z,8.50
2019-01-14T14:58:19.963Z,8.93
2019-01-14T15:00:49.448Z,9.23
2019-01-14T15:03:18.962Z,9.87
2019-01-14T15:05:48.413Z,9.33
2019-01-14T15:08:17.989Z,8.87
2019-01-14T15:10:48.397Z,8.60
2019-01-14T15:13:17.843Z,7.67
2019-01-14T15:15:47.476Z,8.50
2019-01-14T15:18:17.024Z,8.20
2019-01-14T15:20:46.667Z,7.47
2019-01-14T15:23:16.273Z,6.90
2019-01-14T15:25:45.761Z,7.20
2019-01-14T15:28:15.289Z,6.97
2019-01-14T15:30:44.846Z,8.40
2019-01-14T15:33:14.319Z,7.23
2019-01-14T15:35:43.728Z,7.27
2019-01-14T15:38:13.273Z,7.17
2019-01-14T15:40:42.764Z,6.73
2019-01-14T15:43:12.650Z,6.33
2019-01-14T15:45:42.233Z,7.03
2019-01-14T15:48:11.664Z,7.10
2019-01-14T15:50:41.063Z,6.80
2019-01-14T15:53:10.671Z,7.40
2019-01-14T15:55:40.200Z,9.13
2019-01-14T15:58:10.653Z,10.47
2019-01-14T16:00:40.088Z,10.57
2019-01-14T16:03:09.715Z,7.63
2019-01-14T16:05:39.240Z,6.93
2019-01-14T16:08:08.733Z,7.50
2019-01-14T16:10:38.163Z,8.43
2019-01-14T16:13:08.151Z,7.20
2019-01-14T16:15:37.702Z,8.57
2019-01-14T16:18:07.146Z,9.90
2019-01-14T16:20:37.772Z,9.73
2019-01-14T16:23:07.562Z,11.00
2019-01-14T16:25:37.012Z,13.37
2019-01-14T16:28:06.561Z,15.57
2019-01-14T16:30:36.434Z,19.13
2019-01-14T16:33:05.900Z,16.60
2019-01-14T16:35:35.382Z,18.77
2019-01-14T16:38:05.077Z,21.20
2019-01-14T16:40:34.634Z,19.90
2019-01-14T16:43:04.501Z,17.87
2019-01-14T16:45:34.089Z,19.47
2019-01-14T16:48:03.609Z,15.63
2019-01-14T16:50:33.213Z,18.00
2019-01-14T16:53:02.796Z,19.97
2019-01-14T16:55:53.012Z,21.27
2019-01-14T16:58:22.731Z,52.70
2019-01-14T17:00:52.267Z,16.87
2019-01-14T17:03:21.703Z,30.47
2019-01-14T17:05:51.378Z,31.20
2019-01-14T17:08:20.811Z,30.57
2019-01-14T17:10:50.320Z,32.37
2019-01-14T17:13:20.039Z,23.73
2019-01-14T17:15:49.669Z,22.63
2019-01-14T17:18:19.047Z,22.43
2019-01-14T17:20:48.663Z,23.93
2019-01-14T17:23:18.191Z,23.27
2019-01-14T17:25:47.962Z,26.90
2019-01-14T17:28:17.609Z,22.83
2019-01-14T17:30:47.019Z,20.87
2019-01-14T17:33:16.528Z,22.17
2019-01-14T17:35:46.074Z,21.43
2019-01-14T17:38:15.888Z,23.70
2019-01-14T17:40:45.381Z,25.80
2019-01-14T17:43:15.153Z,26.13
2019-01-14T17:45:44.695Z,25.20
2019-01-14T17:48:14.213Z,22.47
2019-01-14T17:50:43.903Z,23.27
2019-01-14T17:53:13.342Z,24.40
2019-01-14T17:55:42.761Z,22.40
2019-01-14T17:58:12.295Z,21.57
2019-01-14T18:00:41.882Z,18.60
2019-01-14T18:03:11.346Z,18.23
2019-01-14T18:05:40.789Z,18.83
2019-01-14T18:08:10.376Z,15.47
2019-01-14T18:10:40.434Z,16.63
2019-01-14T18:13:10.075Z,19.20
2019-01-14T18:15:39.499Z,14.77
2019-01-14T18:18:09.028Z,13.93
2019-01-14T18:20:38.574Z,11.83
2019-01-14T18:23:08.006Z,10.93
2019-01-14T18:25:37.542Z,12.17
2019-01-14T18:28:07.103Z,11.43
2019-01-14T18:30:36.512Z,10.53
2019-01-14T18:33:06.222Z,13.90
2019-01-14T18:35:35.888Z,14.63
2019-01-14T18:38:05.300Z,15.60
2019-01-14T18:40:34.712Z,13.50
2019-01-14T18:43:04.439Z,15.30
2019-01-14T18:45:33.940Z,17.13
2019-01-14T18:48:03.336Z,13.37
2019-01-14T18:50:32.791Z,14.20
2019-01-14T18:53:02.314Z,14.03
2019-01-14T18:55:31.844Z,13.07
2019-01-14T18:58:01.326Z,13.10
2019-01-14T19:00:30.823Z,11.00
2019-01-14T19:03:00.311Z,13.80
2019-01-14T19:05:29.887Z,13.03
2019-01-14T19:07:59.370Z,14.23
2019-01-14T19:10:28.951Z,15.83
2019-01-14T19:12:58.486Z,12.87
2019-01-14T19:15:27.987Z,8.47
2019-01-14T19:17:57.453Z,10.73
2019-01-14T19:20:28.551Z,12.20
2019-01-14T19:22:58.726Z,11.43
2019-01-14T19:25:28.708Z,11.13
2019-01-14T19:27:58.461Z,11.43
2019-01-14T19:30:28.030Z,10.80
2019-01-14T19:32:57.667Z,10.73
2019-01-14T19:35:27.215Z,11.17
2019-01-14T19:37:56.643Z,11.03
2019-01-14T19:40:26.294Z,10.07
2019-01-14T19:42:55.950Z,10.80
2019-01-14T19:45:25.402Z,11.60
2019-01-14T19:47:54.936Z,10.63
2019-01-14T19:50:25.226Z,13.00
2019-01-14T19:52:55.814Z,13.30
2019-01-14T19:55:25.348Z,12.17
2019-01-14T19:57:55.095Z,11.27
2019-01-14T20:00:28.344Z,10.63
2019-01-14T20:02:58.119Z,21.07
2019-01-14T20:05:27.696Z,11.20
2019-01-14T20:07:57.619Z,14.33
2019-01-14T20:10:27.292Z,12.23
2019-01-14T20:12:57.244Z,10.60
2019-01-14T20:15:26.675Z,9.53
2019-01-14T20:17:56.255Z,10.03
2019-01-14T20:20:25.921Z,9.57
2019-01-14T20:22:55.370Z,13.80
2019-01-14T20:25:24.959Z,11.93
2019-01-14T20:27:54.376Z,11.83
2019-01-14T20:30:24.955Z,12.47
2019-01-14T20:32:54.741Z,16.63
2019-01-14T20:35:24.259Z,44.43
2019-01-14T20:37:53.670Z,14.47
2019-01-14T20:40:23.133Z,12.37
2019-01-14T20:42:53.003Z,16.63
2019-01-14T20:45:22.537Z,12.87
2019-01-14T20:47:51.999Z,16.27
2019-01-14T20:50:22.006Z,10.90
2019-01-14T20:52:51.623Z,12.17
2019-01-14T20:55:21.173Z,11.63
2019-01-14T20:57:50.591Z,11.00
2019-01-14T21:00:26.489Z,10.60
2019-01-14T21:02:57.648Z,10.70
2019-01-14T21:05:27.362Z,9.90
2019-01-14T21:07:57.076Z,10.00
2019-01-14T21:10:26.702Z,11.20
2019-01-14T21:12:56.168Z,11.33
2019-01-14T21:15:25.770Z,9.50
2019-01-14T21:17:55.336Z,8.53
2019-01-14T21:20:25.894Z,8.90
2019-01-14T21:22:56.654Z,8.73
2019-01-14T21:25:26.314Z,10.47
2019-01-14T21:27:55.868Z,8.40
2019-01-14T21:30:28.531Z,8.83
2019-01-14T21:32:57.973Z,10.67
2019-01-14T21:35:27.409Z,11.07
2019-01-14T21:37:58.873Z,7.73
2019-01-14T21:40:28.418Z,7.30
2019-01-14T21:42:58.837Z,8.77
2019-01-14T21:45:28.666Z,7.90
2019-01-14T21:47:58.091Z,10.13
2019-01-14T21:50:29.183Z,9.13
2019-01-14T21:52:59.006Z,10.23
2019-01-14T21:55:28.531Z,9.73
2019-01-14T21:57:57.943Z,11.80
2019-01-14T22:00:27.563Z,10.93
2019-01-14T22:02:57.094Z,10.67
2019-01-14T22:05:26.639Z,11.93
2019-01-14T22:07:56.097Z,12.20
2019-01-14T22:10:27.442Z,12.77
2019-01-14T22:12:57.152Z,12.60
2019-01-14T22:15:27.084Z,11.77
2019-01-14T22:17:56.518Z,11.23
2019-01-14T22:20:27.729Z,11.33
2019-01-14T22:22:57.339Z,10.77
2019-01-14T22:25:26.753Z,10.00
2019-01-14T22:27:56.295Z,9.27
2019-01-14T22:30:28.402Z,9.03
2019-01-14T22:32:57.973Z,8.10
2019-01-14T22:35:27.493Z,8.00
2019-01-14T22:37:57.078Z,7.87
2019-01-14T22:40:26.651Z,8.60
2019-01-14T22:42:56.081Z,8.53
2019-01-14T22:45:26.181Z,7.87
2019-01-14T22:47:55.659Z,8.53
2019-01-14T22:50:25.283Z,8.00
2019-01-14T22:52:54.885Z,7.87
2019-01-14T22:55:24.278Z,8.47
2019-01-14T22:57:53.804Z,8.47
2019-01-14T23:00:55.351Z,7.80
2019-01-14T23:03:25.356Z,7.27
2019-01-14T23:05:55.496Z,7.53
2019-01-14T23:08:24.982Z,7.77
2019-01-14T23:10:54.386Z,7.47
2019-01-14T23:13:23.888Z,7.73
2019-01-14T23:15:53.465Z,7.43
2019-01-14T23:18:22.924Z,8.20
2019-01-14T23:20:52.349Z,7.33
2019-01-14T23:23:22.061Z,7.07
2019-01-14T23:25:51.663Z,8.40
2019-01-14T23:28:21.107Z,8.20
2019-01-14T23:30:50.512Z,9.13
2019-01-14T23:33:20.014Z,7.20
2019-01-14T23:35:49.527Z,7.90
2019-01-14T23:38:18.996Z,7.57
2019-01-14T23:40:48.429Z,7.67
2019-01-14T23:43:18.016Z,6.63
2019-01-14T23:45:47.447Z,6.77
2019-01-14T23:48:16.939Z,7.17
2019-01-14T23:50:46.434Z,6.30
2019-01-14T23:53:15.861Z,7.60
2019-01-14T23:55:45.256Z,7.27
2019-01-14T23:58:14.751Z,7.07
